sensor_id;sensor_type;location;lat;lon;timestamp;P1;P2;P0
47810;PMS5003;33575;52.600;7.318;2024-02-26T00:00:00;40;37;
47810;PMS5003;33575;52.600;7.318;2024-02-26T00:02:30;35;32;
47810;PMS5003;33575;52.600;7.318;2024-02-26T00:05:00;28;28;
47810;PMS5003;33575;52.600;7.318;2024-02-26T00:07:30;29;28;
47810;PMS5003;33575;52.600;7.318;2024-02-26T00:10:00;28;28;
47810;PMS5003;33575;52.600;7.318;2024-02-26T00:12:31;30;24;
47810;PMS5003;33575;52.600;7.318;2024-02-26T00:15:02;29;26;
47810;PMS5003;33575;52.600;7.318;2024-02-26T00:17:32;27;23;
47810;PMS5003;33575;52.600;7.318;2024-02-26T00:20:03;30;25;
47810;PMS5003;33575;52.600;7.318;2024-02-26T00:22:33;22;20;
47810;PMS5003;33575;52.600;7.318;2024-02-26T00:25:04;35;28;
47810;PMS5003;33575;52.600;7.318;2024-02-26T00:27:34;33;29;
47810;PMS5003;33575;52.600;7.318;2024-02-26T00:30:04;36;30;
47810;PMS5003;33575;52.600;7.318;2024-02-26T00:32:35;34;31;
47810;PMS5003;33575;52.600;7.318;2024-02-26T00:35:05;30;28;
47810;PMS5003;33575;52.600;7.318;2024-02-26T00:37:35;33;29;
47810;PMS5003;33575;52.600;7.318;2024-02-26T00:40:06;32;30;
47810;PMS5003;33575;52.600;7.318;2024-02-26T00:42:36;32;29;
47810;PMS5003;33575;52.600;7.318;2024-02-26T00:45:08;36;31;
47810;PMS5003;33575;52.600;7.318;2024-02-26T00:47:38;28;24;
47810;PMS5003;33575;52.600;7.318;2024-02-26T00:50:08;33;26;
47810;PMS5003;33575;52.600;7.318;2024-02-26T00:52:39;27;22;
47810;PMS5003;33575;52.600;7.318;2024-02-26T00:55:09;24;23;
47810;PMS5003;33575;52.600;7.318;2024-02-26T00:57:40;23;22;
47810;PMS5003;33575;52.600;7.318;2024-02-26T01:00:11;23;22;
47810;PMS5003;33575;52.600;7.318;2024-02-26T01:02:41;25;21;
47810;PMS5003;33575;52.600;7.318;2024-02-26T01:05:11;22;21;
47810;PMS5003;33575;52.600;7.318;2024-02-26T01:07:42;22;19;
47810;PMS5003;33575;52.600;7.318;2024-02-26T01:10:12;24;22;
47810;PMS5003;33575;52.600;7.318;2024-02-26T01:12:42;24;22;
47810;PMS5003;33575;52.600;7.318;2024-02-26T01:15:13;25;20;
47810;PMS5003;33575;52.600;7.318;2024-02-26T01:17:43;23;18;
47810;PMS5003;33575;52.600;7.318;2024-02-26T01:20:13;28;22;
47810;PMS5003;33575;52.600;7.318;2024-02-26T01:22:43;20;19;
47810;PMS5003;33575;52.600;7.318;2024-02-26T01:25:13;20;19;
47810;PMS5003;33575;52.600;7.318;2024-02-26T01:27:44;18;17;
47810;PMS5003;33575;52.600;7.318;2024-02-26T01:30:14;21;18;
47810;PMS5003;33575;52.600;7.318;2024-02-26T01:32:45;19;18;
47810;PMS5003;33575;52.600;7.318;2024-02-26T01:35:15;26;23;
47810;PMS5003;33575;52.600;7.318;2024-02-26T01:37:45;22;20;
47810;PMS5003;33575;52.600;7.318;2024-02-26T01:40:16;24;19;
47810;PMS5003;33575;52.600;7.318;2024-02-26T01:42:46;18;18;
47810;PMS5003;33575;52.600;7.318;2024-02-26T01:45:17;21;20;
47810;PMS5003;33575;52.600;7.318;2024-02-26T01:47:49;22;19;
47810;PMS5003;33575;52.600;7.318;2024-02-26T01:50:17;17;17;
47810;PMS5003;33575;52.600;7.318;2024-02-26T01:52:47;17;17;
47810;PMS5003;33575;52.600;7.318;2024-02-26T01:55:18;17;17;
47810;PMS5003;33575;52.600;7.318;2024-02-26T01:57:49;20;20;
47810;PMS5003;33575;52.600;7.318;2024-02-26T02:00:20;26;20;
47810;PMS5003;33575;52.600;7.318;2024-02-26T02:02:50;18;18;
47810;PMS5003;33575;52.600;7.318;2024-02-26T02:05:20;22;18;
47810;PMS5003;33575;52.600;7.318;2024-02-26T02:07:50;20;20;
47810;PMS5003;33575;52.600;7.318;2024-02-26T02:10:20;21;18;
47810;PMS5003;33575;52.600;7.318;2024-02-26T02:12:51;30;19;
47810;PMS5003;33575;52.600;7.318;2024-02-26T02:15:21;19;18;
47810;PMS5003;33575;52.600;7.318;2024-02-26T02:17:51;28;23;
47810;PMS5003;33575;52.600;7.318;2024-02-26T02:20:24;21;20;
47810;PMS5003;33575;52.600;7.318;2024-02-26T02:22:52;19;18;
47810;PMS5003;33575;52.600;7.318;2024-02-26T02:25:23;21;20;
47810;PMS5003;33575;52.600;7.318;2024-02-26T02:27:53;24;23;
47810;PMS5003;33575;52.600;7.318;2024-02-26T02:30:25;23;20;
47810;PMS5003;33575;52.600;7.318;2024-02-26T02:32:55;24;24;
47810;PMS5003;33575;52.600;7.318;2024-02-26T02:35:26;24;23;
47810;PMS5003;33575;52.600;7.318;2024-02-26T02:37:57;24;23;
47810;PMS5003;33575;52.600;7.318;2024-02-26T02:40:27;25;20;
47810;PMS5003;33575;52.600;7.318;2024-02-26T02:42:57;23;16;
47810;PMS5003;33575;52.600;7.318;2024-02-26T02:45:28;20;20;
47810;PMS5003;33575;52.600;7.318;2024-02-26T02:47:58;23;21;
47810;PMS5003;33575;52.600;7.318;2024-02-26T02:50:29;26;20;
47810;PMS5003;33575;52.600;7.318;2024-02-26T02:53:00;24;22;
47810;PMS5003;33575;52.600;7.318;2024-02-26T02:55:30;27;24;
47810;PMS5003;33575;52.600;7.318;2024-02-26T02:58:01;29;27;
47810;PMS5003;33575;52.600;7.318;2024-02-26T03:00:31;26;25;
47810;PMS5003;33575;52.600;7.318;2024-02-26T03:03:02;22;21;
47810;PMS5003;33575;52.600;7.318;2024-02-26T03:05:32;22;18;
47810;PMS5003;33575;52.600;7.318;2024-02-26T03:08:03;26;26;
47810;PMS5003;33575;52.600;7.318;2024-02-26T03:10:33;22;21;
47810;PMS5003;33575;52.600;7.318;2024-02-26T03:13:03;33;28;
47810;PMS5003;33575;52.600;7.318;2024-02-26T03:15:34;28;26;
47810;PMS5003;33575;52.600;7.318;2024-02-26T03:18:04;32;25;
47810;PMS5003;33575;52.600;7.318;2024-02-26T03:20:34;34;25;
47810;PMS5003;33575;52.600;7.318;2024-02-26T03:23:05;31;24;
47810;PMS5003;33575;52.600;7.318;2024-02-26T03:25:35;24;22;
47810;PMS5003;33575;52.600;7.318;2024-02-26T03:28:05;25;23;
47810;PMS5003;33575;52.600;7.318;2024-02-26T03:30:35;23;22;
47810;PMS5003;33575;52.600;7.318;2024-02-26T03:33:05;22;21;
47810;PMS5003;33575;52.600;7.318;2024-02-26T03:35:36;28;26;
47810;PMS5003;33575;52.600;7.318;2024-02-26T03:38:06;30;28;
47810;PMS5003;33575;52.600;7.318;2024-02-26T03:40:37;27;26;
47810;PMS5003;33575;52.600;7.318;2024-02-26T03:43:08;30;28;
47810;PMS5003;33575;52.600;7.318;2024-02-26T03:45:38;36;31;
47810;PMS5003;33575;52.600;7.318;2024-02-26T03:48:08;29;26;
47810;PMS5003;33575;52.600;7.318;2024-02-26T03:50:38;39;28;
47810;PMS5003;33575;52.600;7.318;2024-02-26T03:53:12;27;26;
47810;PMS5003;33575;52.600;7.318;2024-02-26T03:55:39;31;27;
47810;PMS5003;33575;52.600;7.318;2024-02-26T03:58:12;30;29;
47810;PMS5003;33575;52.600;7.318;2024-02-26T04:00:42;29;28;
47810;PMS5003;33575;52.600;7.318;2024-02-26T04:03:10;37;30;
47810;PMS5003;33575;52.600;7.318;2024-02-26T04:05:41;39;32;
47810;PMS5003;33575;52.600;7.318;2024-02-26T04:08:11;32;31;
47810;PMS5003;33575;52.600;7.318;2024-02-26T04:10:41;31;27;
47810;PMS5003;33575;52.600;7.318;2024-02-26T04:13:12;27;27;
47810;PMS5003;33575;52.600;7.318;2024-02-26T04:15:43;31;30;
47810;PMS5003;33575;52.600;7.318;2024-02-26T04:18:13;41;32;
47810;PMS5003;33575;52.600;7.318;2024-02-26T04:20:44;38;31;
47810;PMS5003;33575;52.600;7.318;2024-02-26T04:23:14;28;26;
47810;PMS5003;33575;52.600;7.318;2024-02-26T04:25:45;40;35;
47810;PMS5003;33575;52.600;7.318;2024-02-26T04:28:16;38;32;
47810;PMS5003;33575;52.600;7.318;2024-02-26T04:30:46;36;31;
47810;PMS5003;33575;52.600;7.318;2024-02-26T04:33:17;38;33;
47810;PMS5003;33575;52.600;7.318;2024-02-26T04:35:48;38;34;
47810;PMS5003;33575;52.600;7.318;2024-02-26T04:38:18;46;39;
47810;PMS5003;33575;52.600;7.318;2024-02-26T04:40:48;44;40;
47810;PMS5003;33575;52.600;7.318;2024-02-26T04:43:18;43;40;
47810;PMS5003;33575;52.600;7.318;2024-02-26T04:45:49;35;34;
47810;PMS5003;33575;52.600;7.318;2024-02-26T04:48:20;43;36;
47810;PMS5003;33575;52.600;7.318;2024-02-26T04:50:51;44;39;
47810;PMS5003;33575;52.600;7.318;2024-02-26T04:53:21;38;35;
47810;PMS5003;33575;52.600;7.318;2024-02-26T04:55:51;41;38;
47810;PMS5003;33575;52.600;7.318;2024-02-26T04:58:22;48;40;
47810;PMS5003;33575;52.600;7.318;2024-02-26T05:00:52;198;97;
47810;PMS5003;33575;52.600;7.318;2024-02-26T05:03:23;40;39;
47810;PMS5003;33575;52.600;7.318;2024-02-26T05:05:53;40;37;
47810;PMS5003;33575;52.600;7.318;2024-02-26T05:08:24;45;39;
47810;PMS5003;33575;52.600;7.318;2024-02-26T05:10:55;47;40;
47810;PMS5003;33575;52.600;7.318;2024-02-26T05:13:25;49;38;
47810;PMS5003;33575;52.600;7.318;2024-02-26T05:15:55;45;39;
47810;PMS5003;33575;52.600;7.318;2024-02-26T05:18:26;50;41;
47810;PMS5003;33575;52.600;7.318;2024-02-26T05:20:56;53;45;
47810;PMS5003;33575;52.600;7.318;2024-02-26T05:23:27;40;33;
47810;PMS5003;33575;52.600;7.318;2024-02-26T05:25:57;53;40;
47810;PMS5003;33575;52.600;7.318;2024-02-26T05:28:27;43;40;
47810;PMS5003;33575;52.600;7.318;2024-02-26T05:30:58;48;43;
47810;PMS5003;33575;52.600;7.318;2024-02-26T05:33:29;44;40;
47810;PMS5003;33575;52.600;7.318;2024-02-26T05:35:59;53;42;
47810;PMS5003;33575;52.600;7.318;2024-02-26T05:38:30;49;41;
47810;PMS5003;33575;52.600;7.318;2024-02-26T05:41:00;52;43;
47810;PMS5003;33575;52.600;7.318;2024-02-26T05:43:31;44;38;
47810;PMS5003;33575;52.600;7.318;2024-02-26T05:46:01;40;37;
47810;PMS5003;33575;52.600;7.318;2024-02-26T05:48:31;46;38;
47810;PMS5003;33575;52.600;7.318;2024-02-26T05:51:01;46;40;
47810;PMS5003;33575;52.600;7.318;2024-02-26T05:53:31;37;35;
47810;PMS5003;33575;52.600;7.318;2024-02-26T05:56:01;39;34;
47810;PMS5003;33575;52.600;7.318;2024-02-26T05:58:32;42;33;
47810;PMS5003;33575;52.600;7.318;2024-02-26T06:01:02;42;36;
47810;PMS5003;33575;52.600;7.318;2024-02-26T06:03:32;39;35;
47810;PMS5003;33575;52.600;7.318;2024-02-26T06:06:03;46;37;
47810;PMS5003;33575;52.600;7.318;2024-02-26T06:08:33;32;30;
47810;PMS5003;33575;52.600;7.318;2024-02-26T06:11:04;40;33;
47810;PMS5003;33575;52.600;7.318;2024-02-26T06:13:34;36;35;
47810;PMS5003;33575;52.600;7.318;2024-02-26T06:16:04;40;32;
47810;PMS5003;33575;52.600;7.318;2024-02-26T06:18:35;35;31;
47810;PMS5003;33575;52.600;7.318;2024-02-26T06:21:08;34;31;
47810;PMS5003;33575;52.600;7.318;2024-02-26T06:23:35;38;34;
47810;PMS5003;33575;52.600;7.318;2024-02-26T06:26:06;34;27;
47810;PMS5003;33575;52.600;7.318;2024-02-26T06:28:37;43;31;
47810;PMS5003;33575;52.600;7.318;2024-02-26T06:31:07;39;31;
47810;PMS5003;33575;52.600;7.318;2024-02-26T06:33:37;29;29;
47810;PMS5003;33575;52.600;7.318;2024-02-26T06:36:08;38;31;
47810;PMS5003;33575;52.600;7.318;2024-02-26T06:38:39;40;32;
47810;PMS5003;33575;52.600;7.318;2024-02-26T06:41:09;33;30;
47810;PMS5003;33575;52.600;7.318;2024-02-26T06:43:40;42;33;
47810;PMS5003;33575;52.600;7.318;2024-02-26T06:46:11;34;29;
47810;PMS5003;33575;52.600;7.318;2024-02-26T06:48:41;33;29;
47810;PMS5003;33575;52.600;7.318;2024-02-26T06:51:11;37;28;
47810;PMS5003;33575;52.600;7.318;2024-02-26T06:53:42;35;30;
47810;PMS5003;33575;52.600;7.318;2024-02-26T06:56:12;31;27;
47810;PMS5003;33575;52.600;7.318;2024-02-26T06:58:43;32;30;
47810;PMS5003;33575;52.600;7.318;2024-02-26T07:01:13;28;27;
47810;PMS5003;33575;52.600;7.318;2024-02-26T07:03:43;27;23;
47810;PMS5003;33575;52.600;7.318;2024-02-26T07:06:14;27;26;
47810;PMS5003;33575;52.600;7.318;2024-02-26T07:08:44;28;24;
47810;PMS5003;33575;52.600;7.318;2024-02-26T07:11:15;35;29;
47810;PMS5003;33575;52.600;7.318;2024-02-26T07:13:45;39;30;
47810;PMS5003;33575;52.600;7.318;2024-02-26T07:16:16;31;27;
47810;PMS5003;33575;52.600;7.318;2024-02-26T07:18:47;26;26;
47810;PMS5003;33575;52.600;7.318;2024-02-26T07:21:17;29;26;
47810;PMS5003;33575;52.600;7.318;2024-02-26T07:23:48;31;30;
47810;PMS5003;33575;52.600;7.318;2024-02-26T07:26:18;35;30;
47810;PMS5003;33575;52.600;7.318;2024-02-26T07:28:49;36;29;
47810;PMS5003;33575;52.600;7.318;2024-02-26T07:31:20;32;29;
47810;PMS5003;33575;52.600;7.318;2024-02-26T07:33:50;39;32;
47810;PMS5003;33575;52.600;7.318;2024-02-26T07:36:20;46;37;
47810;PMS5003;33575;52.600;7.318;2024-02-26T07:38:51;45;38;
47810;PMS5003;33575;52.600;7.318;2024-02-26T07:41:21;40;33;
47810;PMS5003;33575;52.600;7.318;2024-02-26T07:43:51;35;32;
47810;PMS5003;33575;52.600;7.318;2024-02-26T07:46:22;43;33;
47810;PMS5003;33575;52.600;7.318;2024-02-26T07:48:52;37;30;
47810;PMS5003;33575;52.600;7.318;2024-02-26T07:51:23;44;36;
47810;PMS5003;33575;52.600;7.318;2024-02-26T07:53:53;52;39;
47810;PMS5003;33575;52.600;7.318;2024-02-26T07:56:23;41;38;
47810;PMS5003;33575;52.600;7.318;2024-02-26T07:58:54;45;40;
47810;PMS5003;33575;52.600;7.318;2024-02-26T08:01:24;42;36;
47810;PMS5003;33575;52.600;7.318;2024-02-26T08:03:54;39;35;
47810;PMS5003;33575;52.600;7.318;2024-02-26T08:06:25;45;39;
47810;PMS5003;33575;52.600;7.318;2024-02-26T08:08:55;48;44;
47810;PMS5003;33575;52.600;7.318;2024-02-26T08:11:26;56;50;
47810;PMS5003;33575;52.600;7.318;2024-02-26T08:13:56;83;65;
47810;PMS5003;33575;52.600;7.318;2024-02-26T08:16:28;55;47;
47810;PMS5003;33575;52.600;7.318;2024-02-26T08:18:57;51;45;
47810;PMS5003;33575;52.600;7.318;2024-02-26T08:21:27;57;49;
47810;PMS5003;33575;52.600;7.318;2024-02-26T08:23:58;60;51;
47810;PMS5003;33575;52.600;7.318;2024-02-26T08:26:28;58;47;
47810;PMS5003;33575;52.600;7.318;2024-02-26T08:28:59;46;44;
47810;PMS5003;33575;52.600;7.318;2024-02-26T08:31:29;52;46;
47810;PMS5003;33575;52.600;7.318;2024-02-26T08:34:01;55;44;
47810;PMS5003;33575;52.600;7.318;2024-02-26T08:36:32;53;47;
47810;PMS5003;33575;52.600;7.318;2024-02-26T08:39:01;58;50;
47810;PMS5003;33575;52.600;7.318;2024-02-26T08:41:31;72;53;
47810;PMS5003;33575;52.600;7.318;2024-02-26T08:44:02;55;48;
47810;PMS5003;33575;52.600;7.318;2024-02-26T08:46:32;67;51;
47810;PMS5003;33575;52.600;7.318;2024-02-26T08:49:03;66;51;
47810;PMS5003;33575;52.600;7.318;2024-02-26T08:51:33;61;50;
47810;PMS5003;33575;52.600;7.318;2024-02-26T08:54:03;52;40;
47810;PMS5003;33575;52.600;7.318;2024-02-26T08:56:33;53;39;
47810;PMS5003;33575;52.600;7.318;2024-02-26T08:59:04;39;36;
47810;PMS5003;33575;52.600;7.318;2024-02-26T09:01:34;49;38;
47810;PMS5003;33575;52.600;7.318;2024-02-26T09:04:05;37;37;
47810;PMS5003;33575;52.600;7.318;2024-02-26T09:06:35;51;40;
47810;PMS5003;33575;52.600;7.318;2024-02-26T09:09:05;46;36;
47810;PMS5003;33575;52.600;7.318;2024-02-26T09:11:36;45;32;
47810;PMS5003;33575;52.600;7.318;2024-02-26T09:14:06;37;35;
47810;PMS5003;33575;52.600;7.318;2024-02-26T09:16:37;35;33;
47810;PMS5003;33575;52.600;7.318;2024-02-26T09:19:08;48;38;
47810;PMS5003;33575;52.600;7.318;2024-02-26T09:21:39;34;28;
47810;PMS5003;33575;52.600;7.318;2024-02-26T09:24:08;42;34;
47810;PMS5003;33575;52.600;7.318;2024-02-26T09:26:39;31;29;
47810;PMS5003;33575;52.600;7.318;2024-02-26T09:29:09;34;28;
47810;PMS5003;33575;52.600;7.318;2024-02-26T09:31:39;28;26;
47810;PMS5003;33575;52.600;7.318;2024-02-26T09:34:09;32;30;
47810;PMS5003;33575;52.600;7.318;2024-02-26T09:36:39;28;27;
47810;PMS5003;33575;52.600;7.318;2024-02-26T09:39:10;30;29;
47810;PMS5003;33575;52.600;7.318;2024-02-26T09:41:40;26;24;
47810;PMS5003;33575;52.600;7.318;2024-02-26T09:44:10;27;24;
47810;PMS5003;33575;52.600;7.318;2024-02-26T09:46:41;29;25;
47810;PMS5003;33575;52.600;7.318;2024-02-26T09:49:11;26;25;
47810;PMS5003;33575;52.600;7.318;2024-02-26T09:51:42;37;26;
47810;PMS5003;33575;52.600;7.318;2024-02-26T09:54:13;36;27;
47810;PMS5003;33575;52.600;7.318;2024-02-26T09:56:48;34;25;
47810;PMS5003;33575;52.600;7.318;2024-02-26T09:59:15;23;23;
47810;PMS5003;33575;52.600;7.318;2024-02-26T10:01:44;28;26;
47810;PMS5003;33575;52.600;7.318;2024-02-26T10:04:15;26;23;
47810;PMS5003;33575;52.600;7.318;2024-02-26T10:06:46;30;22;
47810;PMS5003;33575;52.600;7.318;2024-02-26T10:09:16;31;29;
47810;PMS5003;33575;52.600;7.318;2024-02-26T10:11:47;22;21;
47810;PMS5003;33575;52.600;7.318;2024-02-26T10:14:17;23;20;
47810;PMS5003;33575;52.600;7.318;2024-02-26T10:16:49;27;24;
47810;PMS5003;33575;52.600;7.318;2024-02-26T10:21:49;28;22;
47810;PMS5003;33575;52.600;7.318;2024-02-26T10:24:20;25;22;
47810;PMS5003;33575;52.600;7.318;2024-02-26T10:26:51;26;25;
47810;PMS5003;33575;52.600;7.318;2024-02-26T10:29:22;26;23;
47810;PMS5003;33575;52.600;7.318;2024-02-26T10:31:52;25;23;
47810;PMS5003;33575;52.600;7.318;2024-02-26T10:34:23;21;20;
47810;PMS5003;33575;52.600;7.318;2024-02-26T10:36:55;31;21;
47810;PMS5003;33575;52.600;7.318;2024-02-26T10:39:24;24;20;
47810;PMS5003;33575;52.600;7.318;2024-02-26T10:41:54;23;22;
47810;PMS5003;33575;52.600;7.318;2024-02-26T10:44:25;26;22;
47810;PMS5003;33575;52.600;7.318;2024-02-26T10:46:55;33;24;
47810;PMS5003;33575;52.600;7.318;2024-02-26T10:49:25;21;21;
47810;PMS5003;33575;52.600;7.318;2024-02-26T10:51:56;28;22;
47810;PMS5003;33575;52.600;7.318;2024-02-26T10:54:26;20;20;
47810;PMS5003;33575;52.600;7.318;2024-02-26T10:56:57;24;23;
47810;PMS5003;33575;52.600;7.318;2024-02-26T10:59:27;27;21;
47810;PMS5003;33575;52.600;7.318;2024-02-26T11:01:57;21;19;
47810;PMS5003;33575;52.600;7.318;2024-02-26T11:04:28;23;22;
47810;PMS5003;33575;52.600;7.318;2024-02-26T11:06:58;20;18;
47810;PMS5003;33575;52.600;7.318;2024-02-26T11:09:29;20;17;
47810;PMS5003;33575;52.600;7.318;2024-02-26T11:11:59;21;21;
47810;PMS5003;33575;52.600;7.318;2024-02-26T11:14:29;18;16;
47810;PMS5003;33575;52.600;7.318;2024-02-26T11:17:00;28;26;
47810;PMS5003;33575;52.600;7.318;2024-02-26T11:19:31;20;19;
47810;PMS5003;33575;52.600;7.318;2024-02-26T11:22:06;24;22;
47810;PMS5003;33575;52.600;7.318;2024-02-26T11:24:31;20;19;
47810;PMS5003;33575;52.600;7.318;2024-02-26T11:27:02;20;18;
47810;PMS5003;33575;52.600;7.318;2024-02-26T11:29:33;20;19;
47810;PMS5003;33575;52.600;7.318;2024-02-26T11:32:02;21;20;
47810;PMS5003;33575;52.600;7.318;2024-02-26T11:34:33;21;21;
47810;PMS5003;33575;52.600;7.318;2024-02-26T11:37:09;21;17;
47810;PMS5003;33575;52.600;7.318;2024-02-26T11:39:34;22;22;
47810;PMS5003;33575;52.600;7.318;2024-02-26T11:42:05;18;18;
47810;PMS5003;33575;52.600;7.318;2024-02-26T11:44:35;19;19;
47810;PMS5003;33575;52.600;7.318;2024-02-26T11:47:10;21;20;
47810;PMS5003;33575;52.600;7.318;2024-02-26T11:49:36;20;20;
47810;PMS5003;33575;52.600;7.318;2024-02-26T11:52:07;19;18;
47810;PMS5003;33575;52.600;7.318;2024-02-26T11:54:38;21;19;
47810;PMS5003;33575;52.600;7.318;2024-02-26T11:59:37;28;24;
47810;PMS5003;33575;52.600;7.318;2024-02-26T12:02:08;40;34;
47810;PMS5003;33575;52.600;7.318;2024-02-26T12:04:38;26;24;
47810;PMS5003;33575;52.600;7.318;2024-02-26T12:07:10;27;24;
47810;PMS5003;33575;52.600;7.318;2024-02-26T12:09:40;46;43;
47810;PMS5003;33575;52.600;7.318;2024-02-26T12:12:11;19;19;
47810;PMS5003;33575;52.600;7.318;2024-02-26T12:14:40;27;22;
47810;PMS5003;33575;52.600;7.318;2024-02-26T12:17:19;27;22;
47810;PMS5003;33575;52.600;7.318;2024-02-26T12:19:44;19;19;
47810;PMS5003;33575;52.600;7.318;2024-02-26T12:22:12;28;20;
47810;PMS5003;33575;52.600;7.318;2024-02-26T12:24:42;46;46;
47810;PMS5003;33575;52.600;7.318;2024-02-26T12:27:13;39;34;
47810;PMS5003;33575;52.600;7.318;2024-02-26T12:29:44;28;26;
47810;PMS5003;33575;52.600;7.318;2024-02-26T12:32:14;33;28;
47810;PMS5003;33575;52.600;7.318;2024-02-26T12:34:45;27;24;
47810;PMS5003;33575;52.600;7.318;2024-02-26T12:37:15;19;18;
47810;PMS5003;33575;52.600;7.318;2024-02-26T12:39:46;15;15;
47810;PMS5003;33575;52.600;7.318;2024-02-26T12:42:16;26;24;
47810;PMS5003;33575;52.600;7.318;2024-02-26T12:44:47;30;22;
47810;PMS5003;33575;52.600;7.318;2024-02-26T12:47:17;23;20;
47810;PMS5003;33575;52.600;7.318;2024-02-26T12:49:48;19;17;
47810;PMS5003;33575;52.600;7.318;2024-02-26T12:52:19;18;17;
47810;PMS5003;33575;52.600;7.318;2024-02-26T12:54:49;22;19;
47810;PMS5003;33575;52.600;7.318;2024-02-26T12:57:20;18;17;
47810;PMS5003;33575;52.600;7.318;2024-02-26T12:59:51;22;20;
47810;PMS5003;33575;52.600;7.318;2024-02-26T13:02:20;34;27;
47810;PMS5003;33575;52.600;7.318;2024-02-26T13:04:51;20;19;
47810;PMS5003;33575;52.600;7.318;2024-02-26T13:07:22;18;17;
47810;PMS5003;33575;52.600;7.318;2024-02-26T13:09:52;24;18;
47810;PMS5003;33575;52.600;7.318;2024-02-26T13:12:22;21;18;
47810;PMS5003;33575;52.600;7.318;2024-02-26T13:17:24;23;22;
47810;PMS5003;33575;52.600;7.318;2024-02-26T13:19:55;17;16;
47810;PMS5003;33575;52.600;7.318;2024-02-26T13:22:25;27;18;
47810;PMS5003;33575;52.600;7.318;2024-02-26T13:24:56;18;18;
47810;PMS5003;33575;52.600;7.318;2024-02-26T13:27:26;19;18;
47810;PMS5003;33575;52.600;7.318;2024-02-26T13:32:27;18;17;
47810;PMS5003;33575;52.600;7.318;2024-02-26T13:37:28;18;16;
47810;PMS5003;33575;52.600;7.318;2024-02-26T13:39:59;14;14;
47810;PMS5003;33575;52.600;7.318;2024-02-26T13:42:30;24;23;
47810;PMS5003;33575;52.600;7.318;2024-02-26T13:45:00;14;14;
47810;PMS5003;33575;52.600;7.318;2024-02-26T13:47:33;18;17;
47810;PMS5003;33575;52.600;7.318;2024-02-26T13:50:01;21;19;
47810;PMS5003;33575;52.600;7.318;2024-02-26T13:52:31;29;29;
47810;PMS5003;33575;52.600;7.318;2024-02-26T13:55:02;19;19;
47810;PMS5003;33575;52.600;7.318;2024-02-26T13:57:33;22;19;
47810;PMS5003;33575;52.600;7.318;2024-02-26T14:00:04;26;26;
47810;PMS5003;33575;52.600;7.318;2024-02-26T14:02:34;32;25;
47810;PMS5003;33575;52.600;7.318;2024-02-26T14:05:04;29;27;
47810;PMS5003;33575;52.600;7.318;2024-02-26T14:07:35;22;18;
47810;PMS5003;33575;52.600;7.318;2024-02-26T14:10:06;40;35;
47810;PMS5003;33575;52.600;7.318;2024-02-26T14:12:36;31;23;
47810;PMS5003;33575;52.600;7.318;2024-02-26T14:15:07;33;28;
47810;PMS5003;33575;52.600;7.318;2024-02-26T14:17:37;40;32;
47810;PMS5003;33575;52.600;7.318;2024-02-26T14:20:08;24;19;
47810;PMS5003;33575;52.600;7.318;2024-02-26T14:22:38;21;20;
47810;PMS5003;33575;52.600;7.318;2024-02-26T14:25:08;21;21;
47810;PMS5003;33575;52.600;7.318;2024-02-26T14:27:39;18;18;
47810;PMS5003;33575;52.600;7.318;2024-02-26T14:30:09;21;21;
47810;PMS5003;33575;52.600;7.318;2024-02-26T14:32:40;37;28;
47810;PMS5003;33575;52.600;7.318;2024-02-26T14:35:15;33;30;
47810;PMS5003;33575;52.600;7.318;2024-02-26T14:37:42;21;21;
47810;PMS5003;33575;52.600;7.318;2024-02-26T14:40:12;23;22;
47810;PMS5003;33575;52.600;7.318;2024-02-26T14:42:42;26;20;
47810;PMS5003;33575;52.600;7.318;2024-02-26T14:45:14;32;28;
47810;PMS5003;33575;52.600;7.318;2024-02-26T14:47:44;35;28;
47810;PMS5003;33575;52.600;7.318;2024-02-26T14:50:14;19;19;
47810;PMS5003;33575;52.600;7.318;2024-02-26T14:52:45;42;35;
47810;PMS5003;33575;52.600;7.318;2024-02-26T14:55:16;31;24;
47810;PMS5003;33575;52.600;7.318;2024-02-26T14:57:46;24;23;
47810;PMS5003;33575;52.600;7.318;2024-02-26T15:00:16;37;34;
47810;PMS5003;33575;52.600;7.318;2024-02-26T15:02:46;42;39;
47810;PMS5003;33575;52.600;7.318;2024-02-26T15:05:17;27;24;
47810;PMS5003;33575;52.600;7.318;2024-02-26T15:07:48;31;27;
47810;PMS5003;33575;52.600;7.318;2024-02-26T15:10:18;23;23;
47810;PMS5003;33575;52.600;7.318;2024-02-26T15:12:49;21;19;
47810;PMS5003;33575;52.600;7.318;2024-02-26T15:15:20;49;42;
47810;PMS5003;33575;52.600;7.318;2024-02-26T15:17:50;45;34;
47810;PMS5003;33575;52.600;7.318;2024-02-26T15:20:21;40;33;
47810;PMS5003;33575;52.600;7.318;2024-02-26T15:22:51;40;34;
47810;PMS5003;33575;52.600;7.318;2024-02-26T15:25:21;34;32;
47810;PMS5003;33575;52.600;7.318;2024-02-26T15:27:52;36;28;
47810;PMS5003;33575;52.600;7.318;2024-02-26T15:30:23;23;21;
47810;PMS5003;33575;52.600;7.318;2024-02-26T15:32:53;25;23;
47810;PMS5003;33575;52.600;7.318;2024-02-26T15:35:24;24;23;
47810;PMS5003;33575;52.600;7.318;2024-02-26T15:37:55;27;26;
47810;PMS5003;33575;52.600;7.318;2024-02-26T15:40:25;22;22;
47810;PMS5003;33575;52.600;7.318;2024-02-26T15:42:55;23;23;
47810;PMS5003;33575;52.600;7.318;2024-02-26T15:45:27;29;25;
47810;PMS5003;33575;52.600;7.318;2024-02-26T15:47:57;25;25;
47810;PMS5003;33575;52.600;7.318;2024-02-26T15:50:28;23;23;
47810;PMS5003;33575;52.600;7.318;2024-02-26T15:52:58;58;46;
47810;PMS5003;33575;52.600;7.318;2024-02-26T15:55:28;65;54;
47810;PMS5003;33575;52.600;7.318;2024-02-26T15:57:59;33;29;
47810;PMS5003;33575;52.600;7.318;2024-02-26T16:00:29;37;35;
47810;PMS5003;33575;52.600;7.318;2024-02-26T16:02:59;54;44;
47810;PMS5003;33575;52.600;7.318;2024-02-26T16:05:30;26;26;
47810;PMS5003;33575;52.600;7.318;2024-02-26T16:08:01;42;28;
47810;PMS5003;33575;52.600;7.318;2024-02-26T16:10:31;47;41;
47810;PMS5003;33575;52.600;7.318;2024-02-26T16:13:01;56;44;
47810;PMS5003;33575;52.600;7.318;2024-02-26T16:15:32;50;41;
47810;PMS5003;33575;52.600;7.318;2024-02-26T16:18:03;39;33;
47810;PMS5003;33575;52.600;7.318;2024-02-26T16:20:33;44;35;
47810;PMS5003;33575;52.600;7.318;2024-02-26T16:23:03;52;45;
47810;PMS5003;33575;52.600;7.318;2024-02-26T16:25:33;47;37;
47810;PMS5003;33575;52.600;7.318;2024-02-26T16:28:04;44;37;
47810;PMS5003;33575;52.600;7.318;2024-02-26T16:30:35;43;37;
47810;PMS5003;33575;52.600;7.318;2024-02-26T16:33:06;46;38;
47810;PMS5003;33575;52.600;7.318;2024-02-26T16:35:36;40;35;
47810;PMS5003;33575;52.600;7.318;2024-02-26T16:38:06;45;39;
47810;PMS5003;33575;52.600;7.318;2024-02-26T16:40:37;37;29;
47810;PMS5003;33575;52.600;7.318;2024-02-26T16:43:08;41;36;
47810;PMS5003;33575;52.600;7.318;2024-02-26T16:45:38;47;35;
47810;PMS5003;33575;52.600;7.318;2024-02-26T16:48:09;44;37;
47810;PMS5003;33575;52.600;7.318;2024-02-26T16:50:39;30;23;